> The Twenty-Ninth Presentation > Registration & Results > Results > 1999 Marathon > 1999 Big Sur Marathon Active Military

1999 Big Sur Marathon Active Military

Big Sur International Marathon
04/25/99 - Big Sur, CA
Timing & Results: Total Race Systems - 415/472-7223

 4-25-99     BIG SUR MARATHON                                                 
ACTIVE MILITARY
O'All Sex Div
Place Name Place Time Place Div Place Pace
1. Patrick Mally, 26 2:58:01 25 M40-44 8 6:47
2. Rob Erlich, Orange 44 3:02:48 41 M35-39 7 6:58
3. Edward Cortright, Rocklin 74 3:09:14 70 M35-39 10 7:13
4. Scott Davids, Pacific Gro 108 3:16:45 101 M30-34 22 7:30
5. Daniel Levin, Edwards 125 3:18:51 116 M40-44 26 7:35
6. David Jackson, Seaside 133 3:19:58 124 M45-49 10 7:37
7. Allan Polley, Pebble Bea 135 3:20:04 126 M40-44 29 7:38
8. Janet Urbanski, Vacaville 158 3:23:14 13 F 25-29 6 7:45
9. Douglas Titus, Monterey 159 3:23:21 146 M25-29 23 7:45
10. Dj Skelton, Monterey 192 3:26:42 175 M20-24 11 7:53
11. Scott Waldelich, Seaside 199 3:27:09 180 M30-34 34 7:54
12. Robert Regan, Monterey 218 3:28:26 193 M25-29 30 7:57
13. Cathy Bailey, McKinney 255 3:30:37 32 F 35-39 7 8:02
14. Tom Slining, Seattle 270 3:31:51 237 M50-54 18 8:05
15. Rick McCarthy, Monterey 367 3:37:30 312 M30-34 59 8:18
16. Charles Carroll, Monterey 370 3:37:33 314 M35-39 52 8:18
17. Jon Giese, Pacific Grove 373 3:37:38 316 M30-34 60 8:18
18. Christopher Hildago, Mont 389 3:38:11 330 M16-19 4 8:19
19. Theodore Witt, Seaside 427 3:39:54 361 M30-34 67 8:23
20. Juan M. Orozco, Wheatland 498 3:42:54 419 M20-24 26 8:30
21. Randy Batastini, San Dieg 518 3:44:21 435 M35-39 74 8:33
22. Gary Washburn, Ames 573 3:46:19 473 M45-49 60 8:38
23. Bill Kingsley, San Diego 584 3:46:47 481 M35-39 84 8:39
24. Carl Thunberg, Alta Loma 611 3:48:13 497 M40-44 86 8:42
25. Mitch McCaffrey, Seaside 633 3:49:05 510 M30-34 94 8:44
26. Steve Hajosy, Monterey 674 3:51:20 542 M30-34 100 8:49
27. Michael Lwin, Monterey 687 3:51:49 554 M30-34 102 8:50
28. Ed Robles, San Mateo 696 3:52:09 561 M20-24 35 8:51
29. Kathryn Corradini, Monter 699 3:52:14 138 F 25-29 30 8:51
30. William Murphy, Monterey 711 3:52:24 570 M35-39 102 8:52
31. Drew Blazey, Medina 741 3:53:55 596 M45-49 76 8:55
32. Ed Hospodar, Boulder 754 3:54:13 606 M25-29 85 8:56
33. Timothy McCarty, Newbury 809 3:56:22 648 M30-34 124 9:01
34. Lonnie McCarron, Seaside 834 3:57:03 666 M25-29 93 9:02
35. Michael Plaza, Monterey 845 3:57:20 674 M25-29 94 9:03
36. Andrew Gillespie, San An 901 3:59:28 716 M30-34 136 9:08
37. Anthony Wenger, Seaside 924 4:00:29 735 M35-39 123 9:10
38. Michael Cuneo, Monterey 928 4:00:40 737 M45-49 89 9:11
39. Kris Magalski, Monterey 941 4:01:11 194 F 30-34 46 9:12
40. Christopher Penafiel, Mon 956 4:02:01 755 M20-24 43 9:14
41. Paul Temple, Carmel Valle 1005 4:04:41 782 M40-44 139 9:20
42. Peter Fowler, Seaside 1019 4:05:26 790 M30-34 147 9:22
43. Karlton Meadows, Monterey 1201 4:12:47 906 M25-29 124 9:38
44. Chateau Mangaroo, Montere 1203 4:12:51 297 F 20-24 37 9:39
45. Michael Nostrand, Bellevu 1219 4:13:31 919 M40-44 164 9:40
46. Warren Quets, Seaside 1282 4:16:11 960 M35-39 169 9:46
47. Mark Olson, Monterey 1290 4:16:24 965 M25-29 134 9:47
48. Arturo Madril, Monterey 1324 4:18:02 991 M35-39 174 9:50
49. Brian Kenney, Camp Lejeun 1328 4:18:19 994 M25-29 136 9:51
50. Douglas Denn, Leonardtown 1352 4:19:14 1012 M35-39 179 9:53
51. Gabrielle Miller, Alameda 1367 4:19:30 346 F 20-24 41 9:54
52. Felicia Raybo, Alameda 1368 4:19:30 347 F 25-29 75 9:54
53. Marc Stormont, Fairfield 1380 4:19:59 1029 M50-54 106 9:55
54. Andrea Rupp, Suisun City 1440 4:21:55 376 F 30-34 91 9:59
55. David Rasmussen, Seaside 1470 4:22:45 1081 M30-34 190 10:01
56. Jacob Jenson, Monterey 1511 4:24:17 1109 M20-24 48 10:05
57. Christopher Alexander, Ca 1568 4:26:23 1145 M25-29 156 10:10
58. Norman Reitter, Seaside 1571 4:26:24 1148 M25-29 159 10:10
59. Dan Browning, Monterey 1576 4:26:32 1152 M45-49 138 10:10
60. Kimberly Ferland, Carlsba 1591 4:26:53 431 F 30-34 104 10:11
61. Keli Bedics, Tucson 1606 4:27:21 439 F 30-34 108 10:12
62. Matthew Lamothe, Monterey 1686 4:30:51 1217 M30-34 206 10:20
63. Bill Hatch, Monterey 1733 4:33:13 1242 M40-44 220 10:25
64. Robert Bevelacqua, Reston 1767 4:34:31 1266 M30-34 214 10:28
65. Christina Anderson, Alexa 1769 4:34:35 503 F 40-44 66 10:28
66. John Morin, Monterey 1776 4:34:48 1271 M16-19 12 10:29
67. Robert Chaplin, Monterey 1811 4:36:14 1289 M50-54 140 10:32
68. Olga I. Porter, Monterey 1816 4:36:30 524 F 35-39 89 10:33
69. Leo Rogato, Monterey 1855 4:38:35 1308 M20-24 52 10:37
70. Jack Thomas, Seaside 1856 4:38:35 1309 M30-34 221 10:37
71. Kathleen Cannon, Monterey 1880 4:39:38 559 F 35-39 100 10:40
72. Patrick Cross, Monterey 1917 4:41:21 1341 M35-39 242 10:44
73. Brian Kirk, Carmel 1922 4:41:39 1346 M25-29 181 10:44
74. Brandee Murphy, Monterey 1949 4:43:03 589 F 30-34 143 10:48
75. Paul Puckett, Quantico 2002 4:45:09 1386 M45-49 179 10:53
76. Donna Powers, Seaside 2009 4:45:23 620 F 30-34 149 10:53
77. Mike Klesowitch, Monterey 2010 4:45:24 1390 M20-24 53 10:53
78. Heather Barlow, Monterey 2050 4:47:29 638 F 25-29 128 10:58
79. Dawn Rodeschin, Monterey 2063 4:48:07 643 F 25-29 129 10:59
80. Nancy E. Henderson, Lakew 2110 4:51:40 664 F 45-49 63 11:07
81. Alan Takumi, Vacaville 2116 4:51:49 1450 M45-49 190 11:08
82. John Butler, Fairfield 2174 4:55:03 1478 M35-39 265 11:15
83. Carolyn Mroz, Salinas 2189 4:56:25 703 F 35-39 123 11:18
84. Michael Fiasco, Port Huen 2190 4:56:26 1487 M30-34 239 11:18
85. Michael Merwin, Napa 2202 4:57:29 1492 M40-44 256 11:21
86. Brian Barnes, Monterey 2267 5:02:53 1532 M25-29 197 11:33
87. Chuck Robinson, Melbourne 2415 5:15:19 1612 M30-34 252 12:02
88. Barbara Gutsch, Salinas 2454 5:20:19 816 F 35-39 137 12:13
89. Nicolle Robinson, Melbour 2509 5:27:23 845 F 30-34 185 12:29


Copyright © 1998 Total Race Systems, Inc.
80 Mitchell Blvd, San Rafael, CA 94903 USA
1-800-998-7904
Contact us!